Main page
METAR-TAF:

METAR-TAF

Airports :

Orio al Serio International Airport

Bergamo, Italy

latitude: 45-40N, longitude: 009-42E, elevation: 238 m

Current weather observation

The report was made 19 minutes ago, at 23:20 UTC
Wind 3 kt from the North/Northwest, varying between West/Northwest and North/Northeast
Temperature 11°C
Humidity 76%
Pressure 1016 hPa
Visibility 10 km or more
no clouds below 1500 m and no cumulonimbus

METAR: LIME 232320Z 34003KT 300V020 CAVOK 11/07 Q1016 NOSIG

Time: 01:39 (23:39 UTC)

Forecast

The report was made 6 hours and 39 minutes ago, at 17:00 UTC
Forecast valid from 23 at 18 UTC to 24 at 18 UTC
Wind 8 kt from the West/Northwest
Visibility 10 km or more
no clouds below 1500 m and no cumulonimbus
Temporary
from 24 at 09 UTC to 24 at 18 UTC
Wind 15 kt from the West/Northwest with gusts up to 30 kt

TAF: LIME 231700Z 2318/2418 30008KT CAVOK TEMPO 2409/2418 30015G30KT

Weather observations and forecasts of more than 4000 airports (METAR and TAF reports).

The available stations are represented by yellow and red dots on the map.

Hover mouse over dot to see the name of the station.

Then click to see weather observations and forecasts.

To change the map : click on the green buttons with a black cross to zoom in, on the green button with a dash to zoom out, or on the green arrows for adjacent maps.


METAR-TAF: